Time;durP1;ratioP1;P1;durP2;ratioP2;P2;SDS_P1;SDS_P2;PMS_P1;PMS_P2;Temp;Humidity;BMP_temperature;BMP_pressure;BME280_temperature;BME280_humidity;BME280_pressure;Samples;Min_cycle;Max_cycle;Signal;HPM_P1;HPM_P2
2021/07/03 00:04:49;;;;;;;6.12;4.12;;;;;;;19.64;70.29;100541.39;4987357;57;1138648;-79
2021/07/03 00:09:55;;;;;;;7.58;4.22;;;;;;;19.45;70.46;100533.24;4987456;57;1138573;-80
2021/07/03 00:15:01;;;;;;;4.95;3.30;;;;;;;19.39;70.90;100542.52;4987707;57;1138777;-82
2021/07/03 00:20:12;;;;;;;4.37;2.90;;;;;;;19.41;71.23;100533.76;4987575;57;1138628;-83
2021/07/03 00:25:18;;;;;;;9.48;2.90;;;;;;;19.46;71.26;100538.10;4987214;57;1138737;-81
2021/07/03 00:30:24;;;;;;;4.00;3.15;;;;;;;19.44;71.29;100543.64;4987432;57;1138718;-78
2021/07/03 00:35:30;;;;;;;7.42;4.22;;;;;;;19.36;71.09;100541.02;4987175;57;1138650;-81
2021/07/03 00:40:36;;;;;;;5.54;4.04;;;;;;;19.28;71.38;100544.55;4987327;57;1139005;-83
2021/07/03 00:45:41;;;;;;;5.78;3.65;;;;;;;19.22;71.46;100543.93;4986882;57;1138844;-80
2021/07/03 00:50:47;;;;;;;5.47;4.17;;;;;;;19.15;71.33;100547.47;5007316;57;1138669;-82
2021/07/03 00:55:55;;;;;;;8.64;4.26;;;;;;;18.94;71.39;100547.53;5039748;57;1138803;-78
2021/07/03 01:01:02;;;;;;;8.30;3.67;;;;;;;18.77;71.84;100549.11;5018062;57;1138889;-78
2021/07/03 01:06:08;;;;;;;3.60;2.92;;;;;;;18.62;72.12;100555.67;5017972;57;1138733;-82
2021/07/03 01:11:24;;;;;;;4.05;2.80;;;;;;;18.54;72.52;100559.15;4997245;58;1138882;-81
2021/07/03 01:16:30;;;;;;;5.30;3.08;;;;;;;18.46;72.95;100549.80;4997115;58;1138643;-82
2021/07/03 01:21:36;;;;;;;5.37;3.52;;;;;;;18.44;73.31;100550.47;4997236;58;1138741;-81
2021/07/03 01:26:51;;;;;;;4.92;3.30;;;;;;;18.52;73.42;100549.61;5002214;58;1138647;-79
2021/07/03 01:31:59;;;;;;;5.17;4.20;;;;;;;18.49;73.39;100554.80;5001836;58;1138566;-82
2021/07/03 01:37:06;;;;;;;8.83;4.50;;;;;;;18.50;73.55;100555.13;5001637;58;1138696;-83
2021/07/03 01:42:14;;;;;;;5.07;4.30;;;;;;;18.48;73.79;100557.17;5001748;58;1138872;-79
2021/07/03 01:47:20;;;;;;;5.15;4.37;;;;;;;18.46;74.01;100563.19;5001599;58;1138614;-83
2021/07/03 01:52:26;;;;;;;4.85;4.05;;;;;;;18.46;74.22;100559.17;4998201;58;1138571;-78
2021/07/03 01:57:33;;;;;;;18.92;9.28;;;;;;;18.50;74.27;100560.98;4986371;58;1138665;-84
2021/07/03 02:02:50;;;;;;;11.55;5.80;;;;;;;18.45;74.13;100560.68;4984083;58;1140763;-82
2021/07/03 02:07:58;;;;;;;3.70;3.30;;;;;;;18.56;74.64;100561.66;4984624;58;1140640;-81
2021/07/03 02:13:05;;;;;;;5.25;3.65;;;;;;;18.42;74.26;100567.70;4986687;58;1138982;-81
2021/07/03 02:18:13;;;;;;;6.10;3.83;;;;;;;18.25;74.24;100559.67;4986555;58;1138856;-79
2021/07/03 02:23:20;;;;;;;4.97;3.50;;;;;;;18.12;74.64;100558.00;4986235;58;1138894;-80
2021/07/03 02:28:28;;;;;;;9.28;4.22;;;;;;;18.01;74.99;100550.81;4986426;58;1138725;-82
2021/07/03 02:33:35;;;;;;;4.93;4.10;;;;;;;17.87;75.21;100555.79;4984875;58;1138726;-79
2021/07/03 02:38:43;;;;;;;5.67;4.27;;;;;;;17.76;75.56;100552.09;4986583;58;1138651;-80
2021/07/03 02:43:50;;;;;;;13.17;5.80;;;;;;;17.70;75.86;100549.27;4986397;58;1138835;-86
2021/07/03 02:48:56;;;;;;;5.97;5.37;;;;;;;17.69;76.28;100552.44;4986346;58;1140689;-85
2021/07/03 02:54:01;;;;;;;10.23;5.70;;;;;;;17.68;76.57;100548.09;4967270;58;1138561;-81
2021/07/03 02:59:07;;;;;;;13.88;4.55;;;;;;;17.66;76.77;100547.41;4986389;58;1140885;-83
2021/07/03 03:04:12;;;;;;;10.78;5.58;;;;;;;17.65;76.60;100547.57;5034059;57;1140933;-82
2021/07/03 03:09:23;;;;;;;10.23;6.28;;;;;;;17.60;76.59;100550.69;5068652;57;1140797;-79
2021/07/03 03:14:28;;;;;;;15.60;7.17;;;;;;;17.68;76.97;100547.25;5035993;57;1140683;-80
2021/07/03 03:19:35;;;;;;;19.60;7.80;;;;;;;17.68;76.82;100548.59;4986454;58;1140846;-82
2021/07/03 03:24:42;;;;;;;9.73;6.80;;;;;;;17.58;76.91;100545.50;4986175;58;1140846;-81
2021/07/03 03:29:49;;;;;;;13.93;5.37;;;;;;;17.52;77.17;100539.49;4986608;58;1138572;-81
2021/07/03 03:34:55;;;;;;;9.00;6.53;;;;;;;17.51;77.19;100542.33;5002649;57;1140681;-84
2021/07/03 03:40:01;;;;;;;12.78;7.55;;;;;;;17.47;77.42;100539.63;5016873;57;1142632;-79
2021/07/03 03:45:09;;;;;;;6.37;5.70;;;;;;;17.41;77.79;100540.30;4971896;58;1140920;-83
2021/07/03 03:50:16;;;;;;;6.58;5.85;;;;;;;17.38;77.81;100534.77;4986787;58;1138732;-81
2021/07/03 03:55:22;;;;;;;8.57;5.43;;;;;;;17.36;77.89;100535.93;4988784;58;1138680;-79
2021/07/03 04:00:27;;;;;;;8.97;5.60;;;;;;;17.34;78.12;100534.75;5002279;58;1138689;-81
2021/07/03 04:05:35;;;;;;;10.83;5.23;;;;;;;17.35;78.51;100528.91;4993692;58;1138925;-79
2021/07/03 04:10:41;;;;;;;8.10;5.70;;;;;;;17.34;78.72;100526.73;4972178;58;1140739;-82
2021/07/03 04:15:46;;;;;;;15.73;5.73;;;;;;;17.31;78.95;100527.55;5000056;57;1138597;-82
2021/07/03 04:20:52;;;;;;;13.27;5.43;;;;;;;17.28;79.24;100512.67;4977203;57;1140775;-80
2021/07/03 04:25:58;;;;;;;11.87;7.00;;;;;;;17.29;79.57;100514.34;4999754;58;1141004;-81
2021/07/03 04:31:05;;;;;;;7.03;4.60;;;;;;;17.33;79.77;100517.03;4999785;58;1140754;-80
2021/07/03 04:36:10;;;;;;;10.35;5.72;;;;;;;17.39;80.01;100515.56;5000071;58;1138788;-79
2021/07/03 04:41:16;;;;;;;11.88;5.58;;;;;;;17.41;80.15;100512.23;4999706;58;1140700;-82
2021/07/03 04:46:22;;;;;;;10.47;6.63;;;;;;;17.50;80.36;100519.26;4999535;57;1141005;-79
2021/07/03 04:51:27;;;;;;;7.60;5.47;;;;;;;17.57;80.55;100524.27;4999629;58;1140679;-77
2021/07/03 04:56:33;;;;;;;6.50;5.73;;;;;;;17.68;80.66;100516.48;5001567;57;1138993;-80
2021/07/03 05:01:39;;;;;;;10.93;6.10;;;;;;;17.77;80.66;100522.17;5082332;57;1138670;-79
2021/07/03 05:06:45;;;;;;;7.65;3.85;;;;;;;17.82;80.71;100521.19;4999350;58;1140852;-78
2021/07/03 05:11:51;;;;;;;9.17;5.60;;;;;;;17.88;81.17;100524.52;4999808;58;1138764;-79
2021/07/03 05:16:57;;;;;;;6.40;5.53;;;;;;;17.86;81.11;100518.02;4999810;58;1138658;-80
2021/07/03 05:22:04;;;;;;;8.80;6.10;;;;;;;17.92;81.00;100527.20;5003422;57;1139047;-80
2021/07/03 05:27:09;;;;;;;6.77;5.43;;;;;;;17.99;80.99;100538.94;5044002;57;1138798;-78
2021/07/03 05:32:15;;;;;;;13.93;5.27;;;;;;;18.04;80.79;100531.22;5082504;57;1138600;-80
2021/07/03 05:37:21;;;;;;;7.20;5.50;;;;;;;18.12;81.14;100533.08;5082409;57;1140939;-78
2021/07/03 05:42:27;;;;;;;8.05;5.37;;;;;;;18.15;80.85;100538.10;5082201;57;1138661;-78
2021/07/03 05:47:32;;;;;;;8.17;5.67;;;;;;;18.21;80.57;100541.42;5082056;57;1138723;-82
2021/07/03 05:52:38;;;;;;;12.80;5.47;;;;;;;18.29;80.25;100540.11;5082319;57;1138825;-80
2021/07/03 05:57:45;;;;;;;7.50;5.12;;;;;;;18.32;79.97;100535.76;5082004;57;1140958;-79
2021/07/03 06:02:50;;;;;;;16.10;5.58;;;;;;;18.38;79.67;100548.95;5065238;57;1138963;-82
2021/07/03 06:07:56;;;;;;;6.80;4.65;;;;;;;18.47;79.52;100545.28;5001501;58;1140802;-79
2021/07/03 06:13:02;;;;;;;8.78;4.62;;;;;;;18.52;78.81;100549.61;5001506;58;1138748;-82
2021/07/03 06:18:08;;;;;;;9.75;6.17;;;;;;;18.52;78.73;100545.59;5001767;58;1138941;-81
2021/07/03 06:23:13;;;;;;;13.88;5.95;;;;;;;18.59;78.86;100551.98;5001296;58;1138651;-81
2021/07/03 06:28:19;;;;;;;7.47;5.78;;;;;;;18.68;78.70;100550.95;5001502;58;1140923;-83
2021/07/03 06:33:25;;;;;;;8.33;6.08;;;;;;;18.73;78.44;100557.98;5001484;58;1138793;-80
2021/07/03 06:38:31;;;;;;;8.55;5.08;;;;;;;18.79;78.43;100557.28;5001515;58;1138867;-81
2021/07/03 06:43:37;;;;;;;13.00;5.03;;;;;;;18.84;77.42;100560.30;5001479;58;1138783;-80
2021/07/03 06:48:43;;;;;;;9.60;4.53;;;;;;;18.89;77.62;100553.09;5001327;58;1140911;-81
2021/07/03 06:53:48;;;;;;;9.80;4.90;;;;;;;19.03;76.77;100560.92;5001554;58;1138633;-79
2021/07/03 06:58:54;;;;;;;10.00;5.85;;;;;;;19.10;76.73;100558.70;5001623;58;1138596;-77
2021/07/03 07:03:59;;;;;;;5.60;4.55;;;;;;;19.19;76.00;100555.50;4971741;58;1140702;-80
2021/07/03 07:09:06;;;;;;;11.60;6.00;;;;;;;19.30;76.12;100551.09;4995591;58;1138689;-81
2021/07/03 07:14:12;;;;;;;8.88;4.55;;;;;;;19.47;76.27;100559.89;4985115;58;1140833;-82
2021/07/03 07:19:17;;;;;;;5.63;4.97;;;;;;;19.69;74.86;100557.80;4999630;58;1138914;-79
2021/07/03 07:24:23;;;;;;;7.93;5.13;;;;;;;19.88;75.14;100548.43;5000157;58;1138687;-81
2021/07/03 07:29:29;;;;;;;9.30;4.35;;;;;;;20.10;74.01;100549.45;4999928;58;1138651;-81
2021/07/03 07:34:35;;;;;;;3.50;2.95;;;;;;;20.15;72.37;100548.42;4999948;58;1138587;-82
2021/07/03 07:39:40;;;;;;;11.53;5.08;;;;;;;20.09;70.78;100555.34;5000005;58;1139144;-78
2021/07/03 07:44:46;;;;;;;6.92;4.22;;;;;;;19.96;70.55;100552.42;4999595;58;1140812;-79
2021/07/03 07:49:52;;;;;;;7.55;4.95;;;;;;;19.86;71.09;100561.22;4999695;58;1138608;-79
2021/07/03 07:54:58;;;;;;;6.60;3.15;;;;;;;19.80;71.34;100554.70;4999970;58;1138626;-80
2021/07/03 08:00:05;;;;;;;6.65;3.55;;;;;;;19.89;70.10;100564.87;4999884;58;1138823;-81
2021/07/03 08:05:13;;;;;;;8.25;4.53;;;;;;;19.90;68.35;100571.41;4989451;58;1138662;-83
2021/07/03 08:10:19;;;;;;;6.28;3.55;;;;;;;19.87;69.31;100559.67;4986842;58;1138659;-81
2021/07/03 08:15:25;;;;;;;7.55;3.35;;;;;;;19.94;68.16;100563.84;4990882;57;1138703;-80
2021/07/03 08:20:33;;;;;;;4.58;2.58;;;;;;;19.92;67.31;100557.30;5027476;57;1138679;-81
2021/07/03 08:25:39;;;;;;;6.55;3.27;;;;;;;19.87;66.10;100559.67;5059373;57;1138659;-79
2021/07/03 08:30:45;;;;;;;5.83;2.40;;;;;;;19.84;64.77;100560.56;5025133;57;1138778;-83
2021/07/03 08:35:51;;;;;;;5.62;2.67;;;;;;;19.82;63.93;100551.84;5033366;57;1138713;-79
2021/07/03 08:40:57;;;;;;;3.08;2.12;;;;;;;19.82;64.45;100543.80;5064913;57;1138837;-80
2021/07/03 08:46:03;;;;;;;6.42;2.45;;;;;;;19.85;63.39;100559.05;5067943;57;1138597;-81
2021/07/03 08:51:09;;;;;;;4.25;2.15;;;;;;;19.88;63.29;100558.66;5058425;57;1138651;-82
2021/07/03 08:56:17;;;;;;;3.25;1.87;;;;;;;19.92;62.57;100567.20;4987011;58;1138845;-80
2021/07/03 09:01:22;;;;;;;5.10;2.00;;;;;;;19.96;60.79;100566.67;4987028;58;1138787;-78
2021/07/03 09:06:34;;;;;;;7.67;2.67;;;;;;;20.03;61.89;100564.09;4982910;58;1138783;-83
2021/07/03 09:11:39;;;;;;;5.53;2.70;;;;;;;20.02;61.63;100563.26;4982689;58;1138606;-81
2021/07/03 09:16:45;;;;;;;5.47;2.75;;;;;;;20.06;62.16;100563.74;5023037;57;1138796;-80
2021/07/03 09:21:53;;;;;;;5.37;2.30;;;;;;;20.11;62.01;100558.68;5029061;57;1138830;-82
2021/07/03 09:27:03;;;;;;;3.17;2.05;;;;;;;20.17;62.87;100556.59;4986864;58;1138743;-81
2021/07/03 09:32:10;;;;;;;2.75;2.30;;;;;;;20.25;62.67;100559.74;4987023;57;1138832;-76
2021/07/03 09:37:16;;;;;;;3.42;3.00;;;;;;;20.28;61.74;100560.73;4987364;57;1138810;-82
2021/07/03 09:42:24;;;;;;;2.80;2.47;;;;;;;20.28;62.79;100552.67;4945973;58;1138624;-84
2021/07/03 09:47:29;;;;;;;4.17;3.00;;;;;;;20.38;60.85;100551.09;4987193;58;1138669;-85
2021/07/03 09:52:38;;;;;;;4.10;1.85;;;;;;;20.40;60.75;100563.34;4986841;58;1138815;-81
2021/07/03 09:57:45;;;;;;;4.35;2.70;;;;;;;20.33;57.10;100563.17;4986643;58;1138655;-80
2021/07/03 10:02:51;;;;;;;4.87;2.47;;;;;;;20.17;58.77;100559.28;4986945;57;1138786;-79
2021/07/03 10:08:03;;;;;;;2.98;2.05;;;;;;;20.16;59.55;100569.73;4987736;56;1138734;-85
2021/07/03 10:13:18;;;;;;;5.08;2.10;;;;;;;20.10;58.11;100567.75;4975768;57;1138576;-84
2021/07/03 10:18:25;;;;;;;3.60;2.52;;;;;;;20.11;58.26;100569.42;4987866;57;1138813;-84
2021/07/03 10:23:40;;;;;;;4.22;2.83;;;;;;;20.17;59.49;100563.82;4987626;57;1138641;-84
2021/07/03 10:28:50;;;;;;;4.25;3.00;;;;;;;20.22;59.89;100565.47;4987708;57;1138639;-86
2021/07/03 10:33:58;;;;;;;7.00;3.20;;;;;;;20.23;60.41;100563.95;5030587;57;1138633;-82
2021/07/03 10:39:04;;;;;;;4.47;3.15;;;;;;;20.30;60.66;100562.22;5017679;57;1138762;-83
2021/07/03 10:44:13;;;;;;;5.67;2.55;;;;;;;20.30;58.76;100558.70;5001325;57;1138590;-80
2021/07/03 10:49:23;;;;;;;4.67;2.77;;;;;;;20.25;59.39;100565.95;4986970;58;1138818;-80
2021/07/03 10:54:31;;;;;;;5.45;2.95;;;;;;;20.24;59.93;100559.41;4985478;58;1139138;-85
2021/07/03 10:59:39;;;;;;;3.62;2.70;;;;;;;20.25;59.91;100559.74;4987507;57;1138792;-82
2021/07/03 11:04:55;;;;;;;5.30;2.52;;;;;;;20.29;59.86;100564.58;4986840;58;1138590;-83
2021/07/03 11:10:19;;;;;;;2.50;2.30;;;;;;;20.38;60.36;100557.81;4912089;58;1138847;-79
2021/07/03 11:15:27;;;;;;;4.10;2.45;;;;;;;20.50;59.64;100550.98;4915101;59;1138765;-82
2021/07/03 11:20:42;;;;;;;3.05;2.75;;;;;;;20.64;59.29;100553.69;4915522;59;1138616;-80
2021/07/03 11:25:49;;;;;;;4.67;2.80;;;;;;;20.74;59.38;100556.13;4915726;59;1139160;-79
2021/07/03 11:31:01;;;;;;;3.92;3.12;;;;;;;20.84;59.74;100553.99;4915728;59;1138784;-82
2021/07/03 11:36:08;;;;;;;5.07;2.93;;;;;;;20.95;60.24;100554.03;4964251;58;1138679;-89
2021/07/03 11:41:13;;;;;;;3.35;2.77;;;;;;;21.00;59.56;100555.16;4989723;58;1138677;-83
2021/07/03 11:46:19;;;;;;;7.92;3.37;;;;;;;21.02;62.06;100559.84;4915803;59;1138633;-81
2021/07/03 11:51:25;;;;;;;3.40;3.10;;;;;;;21.10;63.52;100560.24;4915705;59;1138847;-81
2021/07/03 11:56:31;;;;;;;7.30;2.83;;;;;;;21.17;64.57;100562.52;4915454;59;1138560;-82
2021/07/03 12:01:36;;;;;;;5.05;3.10;;;;;;;21.22;64.51;100571.42;4898602;59;1138841;-77
2021/07/03 12:06:42;;;;;;;8.70;5.22;;;;;;;21.20;64.79;100572.12;4915223;59;1138560;-83
2021/07/03 12:11:51;;;;;;;11.05;5.62;;;;;;;21.00;64.66;100575.83;4909629;58;1138762;-79
2021/07/03 12:16:59;;;;;;;3.35;3.02;;;;;;;20.75;64.79;100583.84;5065024;57;1140754;-81
2021/07/03 12:22:07;;;;;;;2.98;2.40;;;;;;;20.62;65.26;100587.16;5036463;57;1138639;-80
2021/07/03 12:27:18;;;;;;;9.53;2.80;;;;;;;20.49;64.70;100592.30;5049098;57;1161813;-81
2021/07/03 12:32:23;;;;;;;3.52;2.17;;;;;;;20.43;64.65;100595.22;4988117;57;1138796;-82
2021/07/03 12:37:29;;;;;;;2.42;2.12;;;;;;;20.22;64.70;100587.79;4946811;57;1139060;-84
2021/07/03 12:42:35;;;;;;;7.30;1.98;;;;;;;20.03;63.82;100587.75;5006627;57;1138706;-84
2021/07/03 12:47:41;;;;;;;4.05;2.27;;;;;;;19.96;63.67;100584.63;5046372;57;1138797;-85
2021/07/03 12:52:47;;;;;;;1.82;1.72;;;;;;;19.76;63.57;100580.22;5063316;57;1138836;-81
2021/07/03 12:57:52;;;;;;;1.87;1.77;;;;;;;19.77;64.50;100573.00;5031125;57;1138693;-83
2021/07/03 13:03:00;;;;;;;3.42;2.62;;;;;;;19.85;64.60;100579.17;5041178;57;1138747;-84
2021/07/03 13:08:06;;;;;;;7.65;3.72;;;;;;;19.85;64.49;100577.83;4781673;61;1138770;-89
2021/07/03 13:13:12;;;;;;;2.98;1.90;;;;;;;19.92;64.95;100575.26;4822626;60;1145567;-82
2021/07/03 13:18:19;;;;;;;2.35;1.70;;;;;;;19.95;63.86;100572.22;4807525;60;1139105;-80
2021/07/03 13:23:24;;;;;;;3.17;2.47;;;;;;;19.83;63.23;100574.48;4821356;60;1138839;-81
2021/07/03 13:28:30;;;;;;;1.80;1.70;;;;;;;19.82;64.52;100576.00;4820977;60;1138832;-86
2021/07/03 13:33:43;;;;;;;4.40;2.00;;;;;;;19.86;64.32;100568.73;4957542;58;1138809;-85
2021/07/03 13:38:44;;;;;;;5.00;2.77;;;;;;;20.08;64.43;100569.77;4999151;58;1138845;-82
2021/07/03 13:43:50;;;;;;;3.52;2.12;;;;;;;20.47;64.30;100559.43;4999683;58;1138652;-87
2021/07/03 13:48:56;;;;;;;2.52;2.17;;;;;;;20.84;62.74;100553.16;4999924;58;1138827;-82
2021/07/03 13:54:02;;;;;;;1.82;1.60;;;;;;;20.98;61.06;100550.47;4999915;58;1138880;-79
2021/07/03 13:59:08;;;;;;;3.33;2.10;;;;;;;20.91;59.79;100550.91;4999271;58;1138806;-77
2021/07/03 14:04:14;;;;;;;5.17;2.42;;;;;;;20.74;60.22;100542.69;4959571;58;1138627;-84
2021/07/03 14:09:19;;;;;;;5.55;2.20;;;;;;;20.48;60.24;100539.58;4920076;58;1138651;-85
2021/07/03 14:14:25;;;;;;;11.08;3.05;;;;;;;20.36;61.13;100542.71;4920151;58;1139064;-80
2021/07/03 14:19:31;;;;;;;3.60;2.80;;;;;;;20.19;61.71;100538.45;4842298;59;1140914;-79
2021/07/03 14:24:38;;;;;;;1.80;1.65;;;;;;;20.26;62.60;100543.95;4842630;60;1138723;-80
2021/07/03 14:29:44;;;;;;;2.90;2.37;;;;;;;20.28;61.09;100549.48;4842635;59;1138673;-86
2021/07/03 14:34:50;;;;;;;4.17;2.20;;;;;;;20.17;61.29;100543.67;4842529;59;1138710;-80
2021/07/03 14:39:56;;;;;;;7.45;2.40;;;;;;;20.09;60.93;100541.91;4842490;60;1138792;-82
2021/07/03 14:45:02;;;;;;;7.87;3.30;;;;;;;20.01;61.36;100537.96;4842281;60;1138819;-83
2021/07/03 14:50:09;;;;;;;5.00;2.47;;;;;;;20.07;61.59;100539.07;4842174;59;1138822;-79
2021/07/03 14:55:15;;;;;;;2.36;2.12;;;;;;;20.01;61.06;100536.62;4842346;59;1138949;-81
2021/07/03 15:00:20;;;;;;;3.58;2.00;;;;;;;19.88;60.47;100533.67;4842300;59;1138689;-83
2021/07/03 15:05:26;;;;;;;6.40;2.20;;;;;;;19.86;61.85;100529.81;4843596;59;1138781;-83
2021/07/03 15:10:32;;;;;;;3.20;2.30;;;;;;;19.79;61.27;100519.48;4922042;59;1138746;-83
2021/07/03 15:15:38;;;;;;;2.90;1.82;;;;;;;19.76;62.12;100525.20;5001165;58;1138729;-80
2021/07/03 15:20:43;;;;;;;4.15;1.70;;;;;;;19.87;62.37;100519.91;5000010;58;1138801;-85
2021/07/03 15:25:49;;;;;;;2.02;1.92;;;;;;;19.90;61.88;100523.09;4999679;58;1138639;-82
2021/07/03 15:30:57;;;;;;;5.28;2.37;;;;;;;19.91;61.65;100526.61;4999767;58;1138794;-85
2021/07/03 15:36:02;;;;;;;2.75;2.40;;;;;;;19.90;61.86;100515.03;4999623;58;1138726;-82
2021/07/03 15:41:09;;;;;;;5.65;1.77;;;;;;;19.90;62.16;100520.41;4999953;58;1138695;-84
2021/07/03 15:46:14;;;;;;;5.22;2.58;;;;;;;19.90;62.05;100516.88;5019882;58;1138565;-80
2021/07/03 15:51:20;;;;;;;5.94;2.12;;;;;;;19.83;61.96;100515.95;5000571;58;1138667;-85
2021/07/03 15:56:26;;;;;;;8.40;2.50;;;;;;;19.69;61.60;100512.19;5000650;58;1138765;-84
2021/07/03 16:01:32;;;;;;;8.93;3.33;;;;;;;19.59;61.83;100515.59;5000390;58;1138667;-83
2021/07/03 16:06:37;;;;;;;8.98;2.75;;;;;;;19.59;62.07;100508.88;5081593;57;1138699;-82
2021/07/03 16:11:43;;;;;;;7.75;2.83;;;;;;;19.60;61.31;100506.53;5082995;57;1138690;-84
2021/07/03 16:16:49;;;;;;;4.17;2.52;;;;;;;19.61;61.62;100495.62;5082893;57;1138868;-81
2021/07/03 16:21:54;;;;;;;3.45;2.45;;;;;;;19.61;61.27;100491.59;5082873;57;1138769;-85
2021/07/03 16:27:00;;;;;;;2.08;1.90;;;;;;;19.61;61.18;100486.73;5082756;57;1138643;-81
2021/07/03 16:32:06;;;;;;;7.30;3.05;;;;;;;19.62;61.53;100492.43;5082826;57;1138595;-79
2021/07/03 16:37:12;;;;;;;6.65;2.50;;;;;;;19.60;61.66;100483.72;5082479;57;1138598;-82
2021/07/03 16:42:18;;;;;;;3.33;2.65;;;;;;;19.62;61.93;100479.85;5082839;57;1138673;-86
2021/07/03 16:47:24;;;;;;;3.60;2.05;;;;;;;19.69;62.02;100478.64;5082541;57;1138717;-81
2021/07/03 16:52:30;;;;;;;5.62;2.95;;;;;;;19.72;61.76;100473.40;5082844;57;1138671;-81
2021/07/03 16:57:37;;;;;;;4.12;2.70;;;;;;;19.76;62.07;100481.42;5082447;57;1138667;-78
2021/07/03 17:02:42;;;;;;;4.85;2.45;;;;;;;19.71;61.71;100473.91;5063183;57;1138626;-81
2021/07/03 17:07:48;;;;;;;3.58;2.77;;;;;;;19.65;61.24;100479.50;4986253;58;1138662;-81
2021/07/03 17:12:55;;;;;;;3.20;2.98;;;;;;;19.64;61.33;100471.13;4996046;57;1138739;-82
2021/07/03 17:18:01;;;;;;;4.83;2.98;;;;;;;19.64;61.11;100475.14;5008444;57;1138620;-82
2021/07/03 17:23:06;;;;;;;5.00;3.37;;;;;;;19.65;60.54;100473.30;4971904;57;1138626;-79
2021/07/03 17:28:12;;;;;;;3.52;2.60;;;;;;;19.63;60.36;100482.03;4976530;57;1138639;-77
2021/07/03 17:33:20;;;;;;;11.12;3.15;;;;;;;19.61;59.90;100478.18;4961357;57;1138969;-80
2021/07/03 17:38:26;;;;;;;6.70;2.77;;;;;;;19.62;60.18;100474.99;4958003;57;1140784;-82
2021/07/03 17:43:32;;;;;;;4.92;3.30;;;;;;;19.66;60.36;100486.54;4964019;58;1138899;-80
2021/07/03 17:48:37;;;;;;;4.85;3.27;;;;;;;19.68;60.26;100484.19;4996591;58;1138615;-78
2021/07/03 17:53:43;;;;;;;4.40;2.47;;;;;;;19.67;59.98;100479.33;5000061;58;1138673;-89
2021/07/03 17:58:49;;;;;;;9.20;3.00;;;;;;;19.66;59.75;100477.15;5000032;58;1138608;-77
2021/07/03 18:03:55;;;;;;;5.53;2.72;;;;;;;19.60;60.04;100478.36;4964413;58;1138793;-86
2021/07/03 18:09:01;;;;;;;7.08;3.05;;;;;;;19.58;60.01;100473.16;4919920;59;1138786;-81
2021/07/03 18:14:07;;;;;;;6.15;3.12;;;;;;;19.59;60.35;100471.31;4919901;59;1138579;-82
2021/07/03 18:19:13;;;;;;;5.25;2.98;;;;;;;19.63;60.27;100474.81;4919413;58;1138642;-78
2021/07/03 18:24:19;;;;;;;3.17;2.75;;;;;;;19.66;60.52;100473.12;4915861;59;1149170;-78
2021/07/03 18:29:25;;;;;;;4.87;2.47;;;;;;;19.71;60.45;100467.20;4915756;59;1138610;-86
2021/07/03 18:34:31;;;;;;;4.08;3.10;;;;;;;19.73;60.55;100472.39;4915987;59;1138939;-81
2021/07/03 18:39:37;;;;;;;4.05;2.65;;;;;;;19.79;60.86;100467.66;4915819;59;1138777;-79
2021/07/03 18:44:43;;;;;;;10.43;2.37;;;;;;;19.78;60.57;100464.64;4923075;58;1138689;-83
2021/07/03 18:49:49;;;;;;;5.05;3.17;;;;;;;19.76;60.67;100468.01;5001776;58;1140825;-82
2021/07/03 18:54:54;;;;;;;3.02;2.40;;;;;;;19.72;60.77;100468.87;5000838;58;1138596;-82
2021/07/03 19:00:01;;;;;;;3.75;3.37;;;;;;;19.73;61.06;100467.86;5000763;58;1138732;-78
2021/07/03 19:05:08;;;;;;;8.68;3.22;;;;;;;19.76;61.20;100470.70;4957720;58;1138744;-87
2021/07/03 19:10:15;;;;;;;8.83;3.10;;;;;;;19.81;61.45;100471.84;4921082;58;1138611;-88
2021/07/03 19:15:21;;;;;;;7.05;3.92;;;;;;;19.82;61.45;100466.80;4902333;58;1138786;-84
2021/07/03 19:20:27;;;;;;;18.87;5.22;;;;;;;19.80;61.39;100478.22;4930662;57;1138622;-87
2021/07/03 19:25:33;;;;;;;4.85;3.45;;;;;;;19.79;61.76;100469.00;5049766;57;1140751;-82
2021/07/03 19:30:40;;;;;;;5.65;4.65;;;;;;;19.81;61.92;100475.02;5041215;57;1138939;-84
2021/07/03 19:35:46;;;;;;;15.80;12.37;;;;;;;19.79;61.95;100479.73;5083798;57;1138607;-83
2021/07/03 19:40:52;;;;;;;3.33;3.02;;;;;;;19.77;62.16;100471.02;5028653;57;1142945;-80
2021/07/03 19:45:58;;;;;;;10.18;4.97;;;;;;;19.75;62.25;100477.07;5000355;58;1138599;-82
2021/07/03 19:51:04;;;;;;;8.38;4.67;;;;;;;19.73;62.62;100477.75;5040354;57;1140721;-82
2021/07/03 19:56:10;;;;;;;7.97;4.70;;;;;;;19.75;62.75;100470.36;5030276;57;1138793;-81
2021/07/03 20:01:16;;;;;;;37.13;6.70;;;;;;;19.75;62.91;100469.02;5025300;57;1138598;-81
2021/07/03 20:06:22;;;;;;;13.60;5.45;;;;;;;19.71;62.98;100470.42;5019392;58;1140842;-81
2021/07/03 20:11:30;;;;;;;11.90;6.90;;;;;;;19.73;63.47;100476.41;5000805;57;1141059;-80
2021/07/03 20:16:36;;;;;;;17.07;8.58;;;;;;;19.75;63.66;100477.07;5005869;57;1141040;-83
2021/07/03 20:21:42;;;;;;;11.45;6.75;;;;;;;19.75;63.36;100477.91;5037491;57;1140891;-84
2021/07/03 20:26:49;;;;;;;7.45;4.83;;;;;;;19.64;62.91;100475.66;5005741;57;1140785;-81
2021/07/03 20:31:56;;;;;;;6.50;4.00;;;;;;;19.53;63.12;100483.61;4999874;57;1138800;-82
2021/07/03 20:37:01;;;;;;;8.90;4.17;;;;;;;19.37;63.21;100482.34;4999867;57;1138636;-81
2021/07/03 20:42:09;;;;;;;4.65;4.22;;;;;;;19.28;63.65;100485.56;4942900;57;1138611;-87
2021/07/03 20:47:17;;;;;;;3.47;3.17;;;;;;;19.22;63.81;100482.77;5008333;57;1138766;-82
2021/07/03 20:52:23;;;;;;;4.58;4.17;;;;;;;19.12;64.02;100485.64;5018387;57;1138829;-85
2021/07/03 20:57:29;;;;;;;5.30;4.55;;;;;;;19.01;64.35;100481.17;5054146;57;1139396;-79
2021/07/03 21:02:35;;;;;;;8.33;4.28;;;;;;;18.91;64.70;100491.61;4996073;57;1138880;-81
2021/07/03 21:07:40;;;;;;;8.50;3.87;;;;;;;18.88;65.07;100485.26;4919900;59;1138783;-80
2021/07/03 21:12:47;;;;;;;9.30;4.35;;;;;;;18.91;65.29;100497.48;5062627;57;1138614;-80
2021/07/03 21:17:53;;;;;;;5.45;3.33;;;;;;;18.86;65.39;100473.87;5084665;57;1138708;-81
2021/07/03 21:22:58;;;;;;;8.00;4.80;;;;;;;18.86;65.46;100482.41;5084569;57;1138634;-81
2021/07/03 21:28:05;;;;;;;7.33;4.58;;;;;;;18.83;65.66;100492.13;5030140;57;1138529;-82
2021/07/03 21:33:11;;;;;;;5.15;4.65;;;;;;;18.83;65.71;100485.43;5070822;57;1139007;-81
2021/07/03 21:38:16;;;;;;;6.45;4.15;;;;;;;18.80;65.75;100494.64;5084885;57;1138670;-85
2021/07/03 21:43:23;;;;;;;6.47;4.55;;;;;;;18.76;65.85;100489.33;5085658;57;1138725;-81
2021/07/03 21:48:30;;;;;;;6.37;4.45;;;;;;;18.69;66.12;100491.00;5010921;57;1138694;-84
2021/07/03 21:53:36;;;;;;;4.15;3.72;;;;;;;18.69;66.12;100491.00;5039607;57;1138691;-79
2021/07/03 21:58:42;;;;;;;9.08;4.28;;;;;;;18.67;66.28;100490.34;5026952;57;1138627;-79
2021/07/03 22:03:48;;;;;;;9.08;3.83;;;;;;;18.64;66.35;100479.95;5049315;57;1138801;-86
2021/07/03 22:08:54;;;;;;;4.42;4.03;;;;;;;18.58;66.45;100481.50;5043630;57;1138729;-80
2021/07/03 22:14:00;;;;;;;4.33;3.92;;;;;;;18.55;66.55;100475.11;5034912;57;1138748;-80
2021/07/03 22:19:06;;;;;;;8.43;3.95;;;;;;;18.52;66.71;100474.11;5017121;57;1138695;-79
2021/07/03 22:24:13;;;;;;;11.08;4.03;;;;;;;18.52;66.91;100473.27;5035478;57;1138915;-81
2021/07/03 22:29:18;;;;;;;14.40;9.45;;;;;;;18.47;66.97;100471.13;5065688;57;1140937;-79
2021/07/03 22:34:24;;;;;;;152.38;80.07;;;;;;;18.45;67.32;100469.12;5042968;57;1140921;-81
2021/07/03 22:39:30;;;;;;;43.83;22.73;;;;;;;18.53;67.64;100474.45;4993363;57;1144983;-82
2021/07/03 22:44:35;;;;;;;12.25;7.55;;;;;;;18.63;67.51;100472.13;4986441;57;1142883;-82
2021/07/03 22:49:41;;;;;;;27.10;14.70;;;;;;;18.70;67.29;100462.38;5021907;57;1140782;-83
2021/07/03 22:54:46;;;;;;;17.05;10.60;;;;;;;18.75;67.53;100466.72;4982422;57;1142915;-82
2021/07/03 22:59:52;;;;;;;9.18;6.37;;;;;;;18.85;67.85;100454.78;4960207;57;1142811;-84
2021/07/03 23:04:58;;;;;;;8.88;5.97;;;;;;;18.85;67.45;100457.45;4969249;57;1138865;-80
2021/07/03 23:10:15;;;;;;;7.03;4.95;;;;;;;18.84;67.59;100454.44;4998988;57;1138647;-81